OISA  Abadeh  Airport

Abadeh, Iran

Add Bookmark
ICAO OISA
Type Airport
Status Operational
Latitude
31° 10' 0" N
31.166668
Longitude
52° 40' 0" E
52.666668
Local (DST + 5) UTC (GMT + 4)
Apr 18, 2015 11:42 Apr 18, 2015 07:12
Sunrise-Sunset Local UTC
Begin Civil Twilight 06:01 01:31
Sunrise 06:26 01:56
Sunset 07:30 15:00
End Civil Twilight 07:55 15:25
VFR
VFR
MVFR
MVFR
IFR
VFR
LIFR
VFR
Unknown
Unavailable

Current Weather

METAR Observed MVFR
OISA 171955Z 31008KT 8000 SCT040 12/03 Q1025 Fri, Apr 17, 2015 @ 19:55 UTC
(11 Hours, 17 Minutes ago)
Marginal Visual Flight Rules
Wind Visibility Clouds Conditions
310° at 8 knots (15 kph) 7,998 m
  • Scattered at 4,000 ft AGL
  • No significant weather
Temperatures Readings Precipitation
Current Temp
12°C
54°F
Dewpoint
3°C
37°F
Humidity 54%
Altimeter 30.27" Hg
Sea Level Pressure 1,025 mb
Field Elevation
2,004 m
6,575 ft
None Recorded
-
-

CheckWX.com is intended as a tool to help pilots better visualize weather data. It is not intended as a substitute for an official weather briefing obtained from a Flight Service Station. CheckWX.com does not meet the FAA requirements for an official pre-flight weather briefing. Therefore, it's important that pilots still call and obtain an official FSS pre-flight weather briefing.

© 2007-2015 CheckWX.com
07:12:55 UTC